sensor_id;sensor_type;location;lat;lon;timestamp;pressure;altitude;pressure_sealevel;temperature;humidity
12077;BME280;12420;42.676;23.262;2023-07-29T00:01:44;94484.88;;;21.61;63.04
12077;BME280;12420;42.676;23.262;2023-07-29T00:04:11;94489.16;;;21.62;63.14
12077;BME280;12420;42.676;23.262;2023-07-29T00:06:38;94433.13;;;21.23;63.61
12077;BME280;12420;42.676;23.262;2023-07-29T00:09:05;94479.06;;;21.48;63.98
12077;BME280;12420;42.676;23.262;2023-07-29T00:11:31;94478.06;;;21.43;64.52
12077;BME280;12420;42.676;23.262;2023-07-29T00:13:59;94487.44;;;21.57;64.10
12077;BME280;12420;42.676;23.262;2023-07-29T00:16:26;94481.28;;;21.49;64.19
12077;BME280;12420;42.676;23.262;2023-07-29T00:18:54;94480.47;;;21.58;64.09
12077;BME280;12420;42.676;23.262;2023-07-29T00:21:21;94461.69;;;21.51;64.91
12077;BME280;12420;42.676;23.262;2023-07-29T00:23:48;94485.25;;;21.67;64.77
12077;BME280;12420;42.676;23.262;2023-07-29T00:26:15;94476.72;;;21.65;64.96
12077;BME280;12420;42.676;23.262;2023-07-29T00:28:42;94476.81;;;21.67;65.27
12077;BME280;12420;42.676;23.262;2023-07-29T00:31:08;94476.94;;;21.70;65.29
12077;BME280;12420;42.676;23.262;2023-07-29T00:33:36;94474.84;;;21.58;64.75
12077;BME280;12420;42.676;23.262;2023-07-29T00:36:04;94475.69;;;21.61;64.75
12077;BME280;12420;42.676;23.262;2023-07-29T00:38:31;94469.34;;;21.60;64.37
12077;BME280;12420;42.676;23.262;2023-07-29T00:40:58;94439.16;;;21.51;63.96
12077;BME280;12420;42.676;23.262;2023-07-29T00:43:25;94468.91;;;21.76;64.11
12077;BME280;12420;42.676;23.262;2023-07-29T00:45:52;94464.16;;;21.78;64.08
12077;BME280;12420;42.676;23.262;2023-07-29T00:48:19;94463.19;;;21.85;64.10
12077;BME280;12420;42.676;23.262;2023-07-29T00:50:46;94459.25;;;21.79;64.25
12077;BME280;12420;42.676;23.262;2023-07-29T00:53:15;94473.56;;;21.83;64.66
12077;BME280;12420;42.676;23.262;2023-07-29T00:55:44;94434.53;;;21.56;64.93
12077;BME280;12420;42.676;23.262;2023-07-29T00:58:11;94466.19;;;21.78;65.68
12077;BME280;12420;42.676;23.262;2023-07-29T01:00:38;94465.69;;;21.70;66.02
12077;BME280;12420;42.676;23.262;2023-07-29T01:03:07;94455.59;;;21.55;67.05
12077;BME280;12420;42.676;23.262;2023-07-29T01:05:50;94430.97;;;21.34;67.36
12077;BME280;12420;42.676;23.262;2023-07-29T01:08:31;94450.72;;;21.55;67.42
12077;BME280;12420;42.676;23.262;2023-07-29T01:11:06;94455.34;;;21.51;67.51
12077;BME280;12420;42.676;23.262;2023-07-29T01:13:49;94460.69;;;21.46;68.08
12077;BME280;12420;42.676;23.262;2023-07-29T01:16:21;94464.78;;;21.55;67.87
12077;BME280;12420;42.676;23.262;2023-07-29T01:18:53;94460.47;;;21.54;68.09
12077;BME280;12420;42.676;23.262;2023-07-29T01:21:21;94452.28;;;21.37;68.61
12077;BME280;12420;42.676;23.262;2023-07-29T01:23:52;94464.38;;;21.49;68.90
12077;BME280;12420;42.676;23.262;2023-07-29T01:26:19;94468.41;;;21.46;68.97
12077;BME280;12420;42.676;23.262;2023-07-29T01:28:46;94465.31;;;21.42;69.50
12077;BME280;12420;42.676;23.262;2023-07-29T01:31:16;94458.41;;;21.33;70.06
12077;BME280;12420;42.676;23.262;2023-07-29T01:33:48;94458.31;;;21.21;70.85
12077;BME280;12420;42.676;23.262;2023-07-29T01:36:21;94465.97;;;21.09;71.42
12077;BME280;12420;42.676;23.262;2023-07-29T01:38:51;94452.03;;;20.90;72.06
12077;BME280;12420;42.676;23.262;2023-07-29T01:41:20;94438.47;;;20.76;72.16
12077;BME280;12420;42.676;23.262;2023-07-29T01:43:48;94455.22;;;20.96;72.60
12077;BME280;12420;42.676;23.262;2023-07-29T01:46:15;94459.41;;;20.95;72.81
12077;BME280;12420;42.676;23.262;2023-07-29T01:48:42;94459.25;;;20.93;72.80
12077;BME280;12420;42.676;23.262;2023-07-29T01:51:11;94456.59;;;20.95;72.94
12077;BME280;12420;42.676;23.262;2023-07-29T01:53:41;94473.59;;;20.97;72.65
12077;BME280;12420;42.676;23.262;2023-07-29T01:56:09;94456.03;;;21.08;72.85
12077;BME280;12420;42.676;23.262;2023-07-29T01:58:36;94456.34;;;21.12;72.61
12077;BME280;12420;42.676;23.262;2023-07-29T02:01:03;94468.59;;;21.17;72.14
12077;BME280;12420;42.676;23.262;2023-07-29T02:03:30;94464.16;;;21.14;72.23
12077;BME280;12420;42.676;23.262;2023-07-29T02:05:57;94474.72;;;21.03;72.75
12077;BME280;12420;42.676;23.262;2023-07-29T02:08:24;94450.81;;;20.93;73.08
12077;BME280;12420;42.676;23.262;2023-07-29T02:10:50;94461.78;;;20.89;73.58
12077;BME280;12420;42.676;23.262;2023-07-29T02:13:18;94458.25;;;20.88;73.62
12077;BME280;12420;42.676;23.262;2023-07-29T02:15:45;94389.50;;;20.38;73.62
12077;BME280;12420;42.676;23.262;2023-07-29T02:18:12;94457.84;;;20.82;73.96
12077;BME280;12420;42.676;23.262;2023-07-29T02:20:39;94448.16;;;20.64;74.71
12077;BME280;12420;42.676;23.262;2023-07-29T02:23:06;94448.63;;;20.60;75.20
12077;BME280;12420;42.676;23.262;2023-07-29T02:25:35;94469.97;;;20.85;75.01
12077;BME280;12420;42.676;23.262;2023-07-29T02:28:02;94461.94;;;20.91;74.57
12077;BME280;12420;42.676;23.262;2023-07-29T02:30:31;94461.47;;;20.94;74.61
12077;BME280;12420;42.676;23.262;2023-07-29T02:32:58;94466.78;;;21.00;73.88
12077;BME280;12420;42.676;23.262;2023-07-29T02:35:25;94462.88;;;21.05;73.03
12077;BME280;12420;42.676;23.262;2023-07-29T02:37:52;94473.03;;;20.89;73.80
12077;BME280;12420;42.676;23.262;2023-07-29T02:40:19;94432.94;;;20.57;76.75
12077;BME280;12420;42.676;23.262;2023-07-29T02:42:48;94434.50;;;20.70;76.38
12077;BME280;12420;42.676;23.262;2023-07-29T02:45:15;94462.78;;;20.93;73.97
12077;BME280;12420;42.676;23.262;2023-07-29T02:47:43;94447.66;;;20.77;73.37
12077;BME280;12420;42.676;23.262;2023-07-29T02:50:10;94477.19;;;20.88;73.42
12077;BME280;12420;42.676;23.262;2023-07-29T02:52:36;94475.16;;;20.78;74.18
12077;BME280;12420;42.676;23.262;2023-07-29T02:55:04;94474.16;;;20.74;74.78
12077;BME280;12420;42.676;23.262;2023-07-29T02:57:30;94469.78;;;20.61;75.08
12077;BME280;12420;42.676;23.262;2023-07-29T02:59:57;94469.19;;;20.53;75.63
12077;BME280;12420;42.676;23.262;2023-07-29T03:02:26;94428.06;;;20.16;76.06
12077;BME280;12420;42.676;23.262;2023-07-29T03:04:54;94470.50;;;20.21;76.35
12077;BME280;12420;42.676;23.262;2023-07-29T03:07:21;94483.47;;;20.35;77.63
12077;BME280;12420;42.676;23.262;2023-07-29T03:09:48;94460.63;;;20.10;77.02
12077;BME280;12420;42.676;23.262;2023-07-29T03:12:15;94491.56;;;20.51;76.75
12077;BME280;12420;42.676;23.262;2023-07-29T03:14:41;94463.66;;;20.33;77.86
12077;BME280;12420;42.676;23.262;2023-07-29T03:17:08;94502.22;;;20.43;78.00
12077;BME280;12420;42.676;23.262;2023-07-29T03:19:35;94481.44;;;20.67;76.73
12077;BME280;12420;42.676;23.262;2023-07-29T03:22:03;94468.03;;;20.56;75.83
12077;BME280;12420;42.676;23.262;2023-07-29T03:24:30;94488.69;;;20.70;75.94
12077;BME280;12420;42.676;23.262;2023-07-29T03:26:57;94479.69;;;20.52;76.56
12077;BME280;12420;42.676;23.262;2023-07-29T03:29:23;94488.59;;;20.49;77.84
12077;BME280;12420;42.676;23.262;2023-07-29T03:31:50;94491.66;;;20.53;78.20
12077;BME280;12420;42.676;23.262;2023-07-29T03:34:17;94487.53;;;20.54;79.20
12077;BME280;12420;42.676;23.262;2023-07-29T03:36:44;94428.50;;;20.13;79.19
12077;BME280;12420;42.676;23.262;2023-07-29T03:39:14;94478.38;;;20.53;78.80
12077;BME280;12420;42.676;23.262;2023-07-29T03:41:41;94491.13;;;20.86;75.92
12077;BME280;12420;42.676;23.262;2023-07-29T03:44:07;94480.41;;;20.94;75.73
12077;BME280;12420;42.676;23.262;2023-07-29T03:46:34;94485.94;;;21.13;73.96
12077;BME280;12420;42.676;23.262;2023-07-29T03:49:01;94495.34;;;21.28;72.72
12077;BME280;12420;42.676;23.262;2023-07-29T03:51:28;94492.59;;;21.39;71.53
12077;BME280;12420;42.676;23.262;2023-07-29T03:53:55;94488.41;;;21.50;70.81
12077;BME280;12420;42.676;23.262;2023-07-29T03:56:23;94487.19;;;21.53;69.98
12077;BME280;12420;42.676;23.262;2023-07-29T03:58:50;94496.00;;;21.59;69.85
12077;BME280;12420;42.676;23.262;2023-07-29T04:01:17;94419.47;;;21.08;69.82
12077;BME280;12420;42.676;23.262;2023-07-29T04:03:44;94489.81;;;21.73;69.06
12077;BME280;12420;42.676;23.262;2023-07-29T04:06:11;94494.25;;;21.76;68.63
12077;BME280;12420;42.676;23.262;2023-07-29T04:08:38;94478.31;;;21.68;67.65
12077;BME280;12420;42.676;23.262;2023-07-29T04:11:05;94520.66;;;21.92;68.09
12077;BME280;12420;42.676;23.262;2023-07-29T04:13:33;94500.34;;;21.94;68.30
12077;BME280;12420;42.676;23.262;2023-07-29T04:15:59;94500.34;;;22.05;67.69
12077;BME280;12420;42.676;23.262;2023-07-29T04:18:27;94482.59;;;22.03;66.75
12077;BME280;12420;42.676;23.262;2023-07-29T04:20:53;94492.78;;;22.08;66.13
12077;BME280;12420;42.676;23.262;2023-07-29T04:23:20;94504.63;;;22.28;66.04
12077;BME280;12420;42.676;23.262;2023-07-29T04:25:47;94519.34;;;22.38;65.10
12077;BME280;12420;42.676;23.262;2023-07-29T04:28:15;94497.06;;;22.42;65.31
12077;BME280;12420;42.676;23.262;2023-07-29T04:30:43;94497.19;;;22.44;64.65
12077;BME280;12420;42.676;23.262;2023-07-29T04:33:10;94513.75;;;22.50;64.53
12077;BME280;12420;42.676;23.262;2023-07-29T04:35:37;94511.28;;;22.44;64.36
12077;BME280;12420;42.676;23.262;2023-07-29T04:38:03;94483.84;;;22.11;64.96
12077;BME280;12420;42.676;23.262;2023-07-29T04:40:32;94511.97;;;22.33;65.07
12077;BME280;12420;42.676;23.262;2023-07-29T04:43:00;94478.31;;;22.02;67.53
12077;BME280;12420;42.676;23.262;2023-07-29T04:45:28;94509.28;;;22.35;66.76
12077;BME280;12420;42.676;23.262;2023-07-29T04:47:58;94514.47;;;22.50;66.17
12077;BME280;12420;42.676;23.262;2023-07-29T04:50:25;94501.44;;;22.33;65.83
12077;BME280;12420;42.676;23.262;2023-07-29T04:52:52;94518.41;;;22.69;64.93
12077;BME280;12420;42.676;23.262;2023-07-29T04:55:21;94524.78;;;22.69;65.65
12077;BME280;12420;42.676;23.262;2023-07-29T04:57:48;94525.69;;;22.72;65.33
12077;BME280;12420;42.676;23.262;2023-07-29T05:00:14;94509.59;;;22.63;66.32
12077;BME280;12420;42.676;23.262;2023-07-29T05:02:41;94528.03;;;22.87;65.39
12077;BME280;12420;42.676;23.262;2023-07-29T05:05:09;94476.97;;;22.60;64.70
12077;BME280;12420;42.676;23.262;2023-07-29T05:07:36;94512.31;;;22.96;65.90
12077;BME280;12420;42.676;23.262;2023-07-29T05:10:03;94499.06;;;22.99;63.35
12077;BME280;12420;42.676;23.262;2023-07-29T05:12:30;94541.66;;;23.26;62.61
12077;BME280;12420;42.676;23.262;2023-07-29T05:14:58;94543.13;;;23.15;64.55
12077;BME280;12420;42.676;23.262;2023-07-29T05:17:25;94542.63;;;23.31;63.94
12077;BME280;12420;42.676;23.262;2023-07-29T05:19:52;94542.47;;;23.40;62.73
12077;BME280;12420;42.676;23.262;2023-07-29T05:22:20;94545.81;;;23.49;63.10
12077;BME280;12420;42.676;23.262;2023-07-29T05:24:47;94532.28;;;23.47;62.80
12077;BME280;12420;42.676;23.262;2023-07-29T05:27:13;94541.75;;;23.52;63.05
12077;BME280;12420;42.676;23.262;2023-07-29T05:29:40;94539.31;;;23.34;62.94
12077;BME280;12420;42.676;23.262;2023-07-29T05:32:07;94542.13;;;23.34;62.77
12077;BME280;12420;42.676;23.262;2023-07-29T05:34:34;94535.88;;;23.24;62.90
12077;BME280;12420;42.676;23.262;2023-07-29T05:37:00;94547.66;;;23.32;63.07
12077;BME280;12420;42.676;23.262;2023-07-29T05:39:29;94543.25;;;23.29;63.14
12077;BME280;12420;42.676;23.262;2023-07-29T05:41:57;94545.44;;;23.43;62.54
12077;BME280;12420;42.676;23.262;2023-07-29T05:44:24;94516.97;;;23.27;63.22
12077;BME280;12420;42.676;23.262;2023-07-29T05:46:51;94536.13;;;23.28;63.30
12077;BME280;12420;42.676;23.262;2023-07-29T05:49:17;94548.50;;;23.58;62.08
12077;BME280;12420;42.676;23.262;2023-07-29T05:51:44;94549.81;;;23.69;62.79
12077;BME280;12420;42.676;23.262;2023-07-29T05:54:11;94541.91;;;23.91;62.16
12077;BME280;12420;42.676;23.262;2023-07-29T05:56:39;94548.06;;;23.88;61.98
12077;BME280;12420;42.676;23.262;2023-07-29T05:59:06;94549.72;;;24.04;62.19
12077;BME280;12420;42.676;23.262;2023-07-29T06:01:32;94524.16;;;24.02;59.62
12077;BME280;12420;42.676;23.262;2023-07-29T06:04:01;94543.81;;;24.12;60.41
12077;BME280;12420;42.676;23.262;2023-07-29T06:06:28;94557.47;;;24.30;60.41
12077;BME280;12420;42.676;23.262;2023-07-29T06:08:55;94553.22;;;24.42;60.16
12077;BME280;12420;42.676;23.262;2023-07-29T06:11:25;94485.28;;;24.15;58.76
12077;BME280;12420;42.676;23.262;2023-07-29T06:13:54;94542.78;;;24.71;57.25
12077;BME280;12420;42.676;23.262;2023-07-29T06:16:21;94519.47;;;24.58;57.29
12077;BME280;12420;42.676;23.262;2023-07-29T06:18:48;94531.38;;;24.82;56.11
12077;BME280;12420;42.676;23.262;2023-07-29T06:21:18;94540.28;;;24.90;57.40
12077;BME280;12420;42.676;23.262;2023-07-29T06:23:45;94542.94;;;25.00;56.76
12077;BME280;12420;42.676;23.262;2023-07-29T06:26:14;94529.00;;;25.04;56.08
12077;BME280;12420;42.676;23.262;2023-07-29T06:29:04;94542.50;;;25.06;57.00
12077;BME280;12420;42.676;23.262;2023-07-29T06:31:30;94481.06;;;24.81;55.93
12077;BME280;12420;42.676;23.262;2023-07-29T06:34:01;94539.47;;;25.16;55.68
12077;BME280;12420;42.676;23.262;2023-07-29T06:36:30;94462.06;;;24.69;56.20
12077;BME280;12420;42.676;23.262;2023-07-29T06:38:57;94524.19;;;25.21;55.44
12077;BME280;12420;42.676;23.262;2023-07-29T06:41:27;94497.00;;;25.16;53.51
12077;BME280;12420;42.676;23.262;2023-07-29T06:43:57;94528.50;;;25.22;53.19
12077;BME280;12420;42.676;23.262;2023-07-29T06:46:26;94520.41;;;25.16;53.91
12077;BME280;12420;42.676;23.262;2023-07-29T06:48:53;94529.31;;;25.10;54.40
12077;BME280;12420;42.676;23.262;2023-07-29T06:51:22;94505.63;;;25.04;53.40
12077;BME280;12420;42.676;23.262;2023-07-29T06:53:52;94528.41;;;25.20;53.83
12077;BME280;12420;42.676;23.262;2023-07-29T06:56:21;94515.88;;;24.97;53.65
12077;BME280;12420;42.676;23.262;2023-07-29T06:58:51;94533.28;;;25.05;54.06
12077;BME280;12420;42.676;23.262;2023-07-29T07:01:18;94532.66;;;25.07;53.72
12077;BME280;12420;42.676;23.262;2023-07-29T07:03:48;94524.00;;;25.17;54.14
12077;BME280;12420;42.676;23.262;2023-07-29T07:06:20;94504.13;;;24.89;55.00
12077;BME280;12420;42.676;23.262;2023-07-29T07:08:49;94530.19;;;25.27;54.06
12077;BME280;12420;42.676;23.262;2023-07-29T07:11:16;94462.31;;;25.01;54.23
12077;BME280;12420;42.676;23.262;2023-07-29T07:13:45;94518.84;;;25.54;52.33
12077;BME280;12420;42.676;23.262;2023-07-29T07:16:12;94521.53;;;25.80;52.79
12077;BME280;12420;42.676;23.262;2023-07-29T07:18:39;94527.38;;;25.84;50.80
12077;BME280;12420;42.676;23.262;2023-07-29T07:21:17;94525.81;;;25.81;52.80
12077;BME280;12420;42.676;23.262;2023-07-29T07:23:58;94521.59;;;25.82;49.82
12077;BME280;12420;42.676;23.262;2023-07-29T07:26:24;94524.25;;;25.92;50.28
12077;BME280;12420;42.676;23.262;2023-07-29T07:28:51;94519.63;;;25.98;50.77
12077;BME280;12420;42.676;23.262;2023-07-29T07:31:18;94513.41;;;26.02;50.44
12077;BME280;12420;42.676;23.262;2023-07-29T07:33:45;94516.53;;;26.08;51.01
12077;BME280;12420;42.676;23.262;2023-07-29T07:36:13;94504.75;;;26.14;50.29
12077;BME280;12420;42.676;23.262;2023-07-29T07:38:41;94511.13;;;26.28;48.47
12077;BME280;12420;42.676;23.262;2023-07-29T07:41:07;94512.91;;;26.51;50.65
12077;BME280;12420;42.676;23.262;2023-07-29T07:43:34;94490.16;;;26.35;48.60
12077;BME280;12420;42.676;23.262;2023-07-29T07:46:02;94514.91;;;26.49;48.65
12077;BME280;12420;42.676;23.262;2023-07-29T07:48:30;94516.38;;;26.50;49.12
12077;BME280;12420;42.676;23.262;2023-07-29T07:50:59;94513.81;;;26.56;49.74
12077;BME280;12420;42.676;23.262;2023-07-29T07:53:28;94516.88;;;26.76;48.38
12077;BME280;12420;42.676;23.262;2023-07-29T07:55:54;94509.09;;;26.76;49.00
12077;BME280;12420;42.676;23.262;2023-07-29T07:58:21;94506.72;;;26.87;48.86
12077;BME280;12420;42.676;23.262;2023-07-29T08:00:49;94519.53;;;26.88;48.16
12077;BME280;12420;42.676;23.262;2023-07-29T08:03:17;94516.97;;;26.94;48.63
12077;BME280;12420;42.676;23.262;2023-07-29T08:05:45;94510.84;;;26.83;49.51
12077;BME280;12420;42.676;23.262;2023-07-29T08:08:13;94525.22;;;27.03;49.29
12077;BME280;12420;42.676;23.262;2023-07-29T08:10:41;94519.25;;;27.13;49.08
12077;BME280;12420;42.676;23.262;2023-07-29T08:13:08;94417.03;;;26.50;48.86
12077;BME280;12420;42.676;23.262;2023-07-29T08:15:34;94514.06;;;27.23;47.79
12077;BME280;12420;42.676;23.262;2023-07-29T08:18:01;94526.78;;;27.06;47.80
12077;BME280;12420;42.676;23.262;2023-07-29T08:20:28;94518.81;;;27.03;47.96
12077;BME280;12420;42.676;23.262;2023-07-29T08:22:55;94512.19;;;27.14;45.95
12077;BME280;12420;42.676;23.262;2023-07-29T08:25:21;94511.66;;;27.02;46.12
12077;BME280;12420;42.676;23.262;2023-07-29T08:27:49;94466.72;;;26.51;47.68
12077;BME280;12420;42.676;23.262;2023-07-29T08:30:16;94530.06;;;27.01;46.24
12077;BME280;12420;42.676;23.262;2023-07-29T08:32:44;94518.25;;;26.91;45.89
12077;BME280;12420;42.676;23.262;2023-07-29T08:35:12;94530.34;;;27.07;45.63
12077;BME280;12420;42.676;23.262;2023-07-29T08:37:39;94525.03;;;27.15;44.20
12077;BME280;12420;42.676;23.262;2023-07-29T08:40:07;94511.94;;;27.08;45.45
12077;BME280;12420;42.676;23.262;2023-07-29T08:42:34;94497.25;;;27.14;46.11
12077;BME280;12420;42.676;23.262;2023-07-29T08:45:07;94508.47;;;27.25;45.59
12077;BME280;12420;42.676;23.262;2023-07-29T08:47:34;94472.81;;;27.22;43.90
12077;BME280;12420;42.676;23.262;2023-07-29T08:50:01;94513.09;;;27.51;42.59
12077;BME280;12420;42.676;23.262;2023-07-29T08:52:30;94522.44;;;27.53;43.64
12077;BME280;12420;42.676;23.262;2023-07-29T08:55:00;94489.59;;;27.50;42.42
12077;BME280;12420;42.676;23.262;2023-07-29T08:57:27;94507.28;;;27.64;42.42
12077;BME280;12420;42.676;23.262;2023-07-29T08:59:55;94510.50;;;27.57;42.25
12077;BME280;12420;42.676;23.262;2023-07-29T09:02:24;94508.19;;;27.69;42.30
12077;BME280;12420;42.676;23.262;2023-07-29T09:04:51;94512.38;;;27.84;41.70
12077;BME280;12420;42.676;23.262;2023-07-29T09:07:19;94497.09;;;27.93;41.39
12077;BME280;12420;42.676;23.262;2023-07-29T09:09:46;94507.03;;;28.10;40.17
12077;BME280;12420;42.676;23.262;2023-07-29T09:12:12;94490.69;;;28.10;36.07
12077;BME280;12420;42.676;23.262;2023-07-29T09:14:39;94434.97;;;27.69;37.60
12077;BME280;12420;42.676;23.262;2023-07-29T09:17:07;94494.22;;;28.09;37.26
12077;BME280;12420;42.676;23.262;2023-07-29T09:19:36;94494.25;;;28.29;37.04
12077;BME280;12420;42.676;23.262;2023-07-29T09:22:03;94471.34;;;28.25;36.19
12077;BME280;12420;42.676;23.262;2023-07-29T09:24:30;94464.81;;;28.40;34.96
12077;BME280;12420;42.676;23.262;2023-07-29T09:26:57;94447.09;;;28.24;35.91
12077;BME280;12420;42.676;23.262;2023-07-29T09:29:28;94461.41;;;28.44;36.31
12077;BME280;12420;42.676;23.262;2023-07-29T09:32:17;94477.94;;;28.85;36.38
12077;BME280;12420;42.676;23.262;2023-07-29T09:34:46;94485.25;;;28.90;35.35
12077;BME280;12420;42.676;23.262;2023-07-29T09:37:17;94459.38;;;28.84;35.64
12077;BME280;12420;42.676;23.262;2023-07-29T09:39:45;94455.75;;;29.02;34.93
12077;BME280;12420;42.676;23.262;2023-07-29T09:42:17;94463.50;;;29.19;33.57
12077;BME280;12420;42.676;23.262;2023-07-29T09:44:44;94456.78;;;29.30;35.53
12077;BME280;12420;42.676;23.262;2023-07-29T09:47:19;94438.59;;;29.19;35.01
12077;BME280;12420;42.676;23.262;2023-07-29T09:49:48;94471.44;;;29.42;34.99
12077;BME280;12420;42.676;23.262;2023-07-29T09:52:16;94471.66;;;29.49;33.66
12077;BME280;12420;42.676;23.262;2023-07-29T09:54:46;94448.31;;;29.12;33.31
12077;BME280;12420;42.676;23.262;2023-07-29T09:57:14;94468.59;;;29.03;32.67
12077;BME280;12420;42.676;23.262;2023-07-29T09:59:43;94432.38;;;28.85;33.06
12077;BME280;12420;42.676;23.262;2023-07-29T10:02:14;94462.22;;;28.84;33.27
12077;BME280;12420;42.676;23.262;2023-07-29T10:04:42;94437.91;;;28.81;33.50
12077;BME280;12420;42.676;23.262;2023-07-29T10:07:11;94443.97;;;28.91;33.12
12077;BME280;12420;42.676;23.262;2023-07-29T10:09:39;94451.69;;;29.07;33.54
12077;BME280;12420;42.676;23.262;2023-07-29T10:12:06;94451.31;;;29.16;33.52
12077;BME280;12420;42.676;23.262;2023-07-29T10:14:34;94423.38;;;29.13;32.77
12077;BME280;12420;42.676;23.262;2023-07-29T10:17:02;94442.75;;;29.36;32.18
12077;BME280;12420;42.676;23.262;2023-07-29T10:19:30;94438.66;;;29.41;32.80
12077;BME280;12420;42.676;23.262;2023-07-29T10:21:59;94417.19;;;29.18;32.90
12077;BME280;12420;42.676;23.262;2023-07-29T10:24:30;94408.13;;;29.24;32.40
12077;BME280;12420;42.676;23.262;2023-07-29T10:26:58;94424.16;;;29.35;32.29
12077;BME280;12420;42.676;23.262;2023-07-29T10:29:31;94414.09;;;29.32;32.61
12077;BME280;12420;42.676;23.262;2023-07-29T10:32:02;94409.72;;;29.29;32.42
12077;BME280;12420;42.676;23.262;2023-07-29T10:34:30;94409.44;;;29.43;32.10
12077;BME280;12420;42.676;23.262;2023-07-29T10:36:58;94415.22;;;29.45;32.32
12077;BME280;12420;42.676;23.262;2023-07-29T10:39:25;94424.31;;;29.39;31.53
12077;BME280;12420;42.676;23.262;2023-07-29T10:41:58;94398.84;;;29.24;31.47
12077;BME280;12420;42.676;23.262;2023-07-29T10:44:50;94409.44;;;29.21;31.81
12077;BME280;12420;42.676;23.262;2023-07-29T10:47:20;94396.09;;;29.06;31.36
12077;BME280;12420;42.676;23.262;2023-07-29T10:49:50;94422.88;;;29.18;31.55
12077;BME280;12420;42.676;23.262;2023-07-29T10:52:29;94345.44;;;28.84;31.47
12077;BME280;12420;42.676;23.262;2023-07-29T10:54:56;94399.31;;;29.38;31.79
12077;BME280;12420;42.676;23.262;2023-07-29T10:57:32;94402.03;;;29.56;30.40
12077;BME280;12420;42.676;23.262;2023-07-29T10:59:59;94381.22;;;29.29;30.15
12077;BME280;12420;42.676;23.262;2023-07-29T11:02:30;94369.72;;;29.27;30.12
12077;BME280;12420;42.676;23.262;2023-07-29T11:04:58;94394.88;;;29.55;30.65
12077;BME280;12420;42.676;23.262;2023-07-29T11:07:26;94377.84;;;29.57;30.66
12077;BME280;12420;42.676;23.262;2023-07-29T11:09:59;94392.97;;;29.83;29.76
12077;BME280;12420;42.676;23.262;2023-07-29T11:12:43;94388.44;;;29.74;29.51
12077;BME280;12420;42.676;23.262;2023-07-29T11:15:20;94372.28;;;29.83;29.15
12077;BME280;12420;42.676;23.262;2023-07-29T11:17:49;94375.34;;;30.13;29.69
12077;BME280;12420;42.676;23.262;2023-07-29T11:20:17;94335.34;;;29.87;28.65
12077;BME280;12420;42.676;23.262;2023-07-29T11:22:44;94311.94;;;29.69;28.78
12077;BME280;12420;42.676;23.262;2023-07-29T11:25:12;94383.38;;;30.19;27.89
12077;BME280;12420;42.676;23.262;2023-07-29T11:27:40;94363.81;;;30.09;27.90
12077;BME280;12420;42.676;23.262;2023-07-29T11:30:10;94367.69;;;30.20;28.82
12077;BME280;12420;42.676;23.262;2023-07-29T11:32:38;94371.97;;;30.43;28.41
12077;BME280;12420;42.676;23.262;2023-07-29T11:35:06;94312.56;;;29.89;28.25
12077;BME280;12420;42.676;23.262;2023-07-29T11:37:35;94359.09;;;30.42;28.30
12077;BME280;12420;42.676;23.262;2023-07-29T11:40:03;94356.16;;;30.64;27.93
12077;BME280;12420;42.676;23.262;2023-07-29T11:42:32;94378.88;;;30.84;27.02
12077;BME280;12420;42.676;23.262;2023-07-29T11:45:01;94359.97;;;30.99;27.25
12077;BME280;12420;42.676;23.262;2023-07-29T11:47:32;94367.59;;;31.16;26.33
12077;BME280;12420;42.676;23.262;2023-07-29T11:50:04;94338.16;;;31.11;25.95
12077;BME280;12420;42.676;23.262;2023-07-29T11:52:32;94355.63;;;31.24;25.59
12077;BME280;12420;42.676;23.262;2023-07-29T11:55:00;94365.19;;;31.34;25.94
12077;BME280;12420;42.676;23.262;2023-07-29T11:57:28;94365.16;;;31.04;25.72
12077;BME280;12420;42.676;23.262;2023-07-29T11:59:56;94362.31;;;31.04;25.41
12077;BME280;12420;42.676;23.262;2023-07-29T12:02:28;94389.25;;;30.97;26.03
12077;BME280;12420;42.676;23.262;2023-07-29T12:04:58;94353.34;;;30.90;25.44
12077;BME280;12420;42.676;23.262;2023-07-29T12:07:25;94350.09;;;30.78;26.14
12077;BME280;12420;42.676;23.262;2023-07-29T12:09:52;94343.53;;;30.97;25.76
12077;BME280;12420;42.676;23.262;2023-07-29T12:12:22;94348.22;;;31.12;25.57
12077;BME280;12420;42.676;23.262;2023-07-29T12:14:49;94298.69;;;30.78;25.11
12077;BME280;12420;42.676;23.262;2023-07-29T12:17:16;94300.53;;;30.93;25.33
12077;BME280;12420;42.676;23.262;2023-07-29T12:19:43;94302.63;;;30.90;24.71
12077;BME280;12420;42.676;23.262;2023-07-29T12:22:11;94344.59;;;30.84;25.31
12077;BME280;12420;42.676;23.262;2023-07-29T12:24:40;94223.41;;;30.15;25.15
12077;BME280;12420;42.676;23.262;2023-07-29T12:27:10;94297.09;;;30.97;24.54
12077;BME280;12420;42.676;23.262;2023-07-29T12:29:40;94262.84;;;30.72;25.23
12077;BME280;12420;42.676;23.262;2023-07-29T12:32:07;94344.91;;;31.50;25.08
12077;BME280;12420;42.676;23.262;2023-07-29T12:34:36;94265.41;;;31.17;24.37
12077;BME280;12420;42.676;23.262;2023-07-29T12:37:04;94290.66;;;31.54;24.25
12077;BME280;12420;42.676;23.262;2023-07-29T12:39:34;94286.63;;;31.66;23.66
12077;BME280;12420;42.676;23.262;2023-07-29T12:42:02;94298.38;;;31.80;23.59
12077;BME280;12420;42.676;23.262;2023-07-29T12:44:30;94226.44;;;31.01;23.62
12077;BME280;12420;42.676;23.262;2023-07-29T12:46:58;94347.28;;;31.90;23.76
12077;BME280;12420;42.676;23.262;2023-07-29T12:49:25;94268.88;;;31.71;23.53
12077;BME280;12420;42.676;23.262;2023-07-29T12:51:53;94337.09;;;32.48;23.41
12077;BME280;12420;42.676;23.262;2023-07-29T12:54:20;94312.56;;;32.38;23.47
12077;BME280;12420;42.676;23.262;2023-07-29T12:56:48;94256.75;;;31.73;23.38